Time;durP1;ratioP1;P1;durP2;ratioP2;P2;SDS_P1;SDS_P2;PMS_P1;PMS_P2;Temp;Humidity;BMP_temperature;BMP_pressure;BME280_temperature;BME280_humidity;BME280_pressure;Samples;Min_cycle;Max_cycle;Signal;HPM_P1;HPM_P2
2023/12/06 00:01:48;;;;;;;52.80;24.67;;;;;;;-144.30;97.55;86581.44;5112233;28;20684;-60
2023/12/06 00:04:15;;;;;;;57.03;25.47;;;;;;;-144.30;97.18;86579.47;5112002;28;20277;-59
2023/12/06 00:06:44;;;;;;;53.13;24.67;;;;;;;-144.30;96.82;86551.63;5112123;28;20204;-60
2023/12/06 00:09:10;;;;;;;48.93;25.73;;;;;;;-144.30;96.51;86571.50;5111566;28;20222;-59
2023/12/06 00:11:37;;;;;;;49.80;24.53;;;;;;;-144.30;96.69;86643.09;5112088;28;20199;-59
2023/12/06 00:14:04;;;;;;;63.43;27.33;;;;;;;-144.30;96.34;86589.41;5111964;28;20706;-60
2023/12/06 00:16:31;;;;;;;56.63;26.80;;;;;;;-144.30;96.75;86581.44;5112507;28;20199;-60
2023/12/06 00:18:58;;;;;;;48.20;25.27;;;;;;;-144.30;97.49;86545.66;5111805;28;20277;-60
2023/12/06 00:21:25;;;;;;;61.00;26.57;;;;;;;-144.30;97.58;86561.56;5112007;28;20230;-60
2023/12/06 00:23:53;;;;;;;54.57;26.00;;;;;;;-144.30;97.60;86583.44;5112095;28;20198;-59
2023/12/06 00:26:21;;;;;;;54.07;25.57;;;;;;;-144.30;97.80;86599.34;5112114;28;20578;-59
2023/12/06 00:28:48;;;;;;;57.17;25.77;;;;;;;-144.30;97.72;86577.47;5111672;28;20555;-58
2023/12/06 00:31:15;;;;;;;65.67;25.97;;;;;;;-144.30;97.51;86474.06;5111062;28;20209;-58
2023/12/06 00:33:42;;;;;;;64.27;26.73;;;;;;;-144.30;97.87;86589.41;5111193;28;20217;-58
2023/12/06 00:36:10;;;;;;;57.23;27.00;;;;;;;-144.30;97.72;86613.28;5111356;28;20286;-59
2023/12/06 00:38:37;;;;;;;61.67;26.07;;;;;;;-144.30;98.53;86567.53;5111517;28;20186;-59
2023/12/06 00:41:06;;;;;;;58.00;27.73;;;;;;;-144.30;98.30;86543.66;5110976;28;20322;-59
2023/12/06 00:43:33;;;;;;;65.40;27.20;;;;;;;-144.30;98.81;86593.38;5111247;28;20692;-59
2023/12/06 00:45:59;;;;;;;57.70;25.47;;;;;;;-144.30;99.20;86637.13;5111167;28;20237;-59
2023/12/06 00:48:25;;;;;;;56.77;27.33;;;;;;;-144.30;100.00;86593.38;5111312;28;20588;-58
2023/12/06 00:50:52;;;;;;;57.33;28.13;;;;;;;-144.30;100.00;86589.41;5111577;27;20281;-59
2023/12/06 00:53:19;;;;;;;58.47;25.27;;;;;;;-144.30;100.00;86728.59;5111105;28;20199;-59
2023/12/06 00:55:46;;;;;;;53.47;26.07;;;;;;;-144.30;100.00;86601.34;5111108;28;20302;-59
2023/12/06 00:58:14;;;;;;;54.07;26.53;;;;;;;-144.30;100.00;86575.47;5110930;28;20208;-58
2023/12/06 01:00:41;;;;;;;60.77;26.47;;;;;;;-144.30;100.00;86587.41;5111162;28;20593;-58
2023/12/06 01:03:08;;;;;;;58.27;25.77;;;;;;;-144.30;100.00;86577.47;5110937;28;20199;-60
2023/12/06 01:05:35;;;;;;;61.43;26.27;;;;;;;-144.30;100.00;86605.31;5111148;28;20191;-59
2023/12/06 01:08:02;;;;;;;60.47;27.67;;;;;;;-144.30;100.00;86583.44;5110866;28;20224;-59
2023/12/06 01:10:29;;;;;;;66.23;28.07;;;;;;;-144.30;100.00;86589.41;5110605;28;20242;-59
2023/12/06 01:12:56;;;;;;;61.47;26.90;;;;;;;-144.30;100.00;86535.72;5111049;28;20198;-59
2023/12/06 01:15:25;;;;;;;61.03;27.20;;;;;;;-144.30;100.00;86559.56;5110957;28;20204;-60
2023/12/06 01:17:52;;;;;;;61.17;27.73;;;;;;;-144.30;100.00;86595.38;5110787;28;20191;-60
2023/12/06 01:20:19;;;;;;;64.80;29.60;;;;;;;-144.30;100.00;86581.44;5109963;28;20241;-59
2023/12/06 01:22:46;;;;;;;63.23;27.67;;;;;;;-144.30;100.00;86643.09;5110734;28;20198;-58
2023/12/06 01:25:13;;;;;;;64.47;27.73;;;;;;;-144.30;100.00;86555.59;5110792;28;20577;-59
2023/12/06 01:27:40;;;;;;;60.97;29.50;;;;;;;-144.30;100.00;86593.38;5110807;28;20275;-60
2023/12/06 01:30:08;;;;;;;71.53;28.57;;;;;;;-144.30;100.00;86597.34;5110558;28;20605;-59
2023/12/06 01:32:36;;;;;;;58.17;27.37;;;;;;;-144.30;100.00;86621.22;5110615;28;20194;-60
2023/12/06 01:35:03;;;;;;;67.80;29.30;;;;;;;-144.30;100.00;86615.25;5110458;28;20585;-60
2023/12/06 01:37:30;;;;;;;69.23;28.63;;;;;;;-144.30;100.00;86659.00;5110167;28;20199;-60
2023/12/06 01:39:57;;;;;;;67.17;28.60;;;;;;;-144.30;100.00;86593.38;5109950;28;20276;-60
2023/12/06 01:42:24;;;;;;;62.27;28.23;;;;;;;-144.30;100.00;86635.13;5110534;28;20195;-59
2023/12/06 01:44:51;;;;;;;68.63;29.60;;;;;;;-144.30;100.00;86553.59;5109930;28;20225;-59
2023/12/06 01:47:19;;;;;;;70.30;29.13;;;;;;;-144.30;100.00;86507.88;5109777;28;20290;-59
2023/12/06 01:49:48;;;;;;;68.53;29.40;;;;;;;-144.30;100.00;86595.38;5110399;28;20214;-60
2023/12/06 01:52:14;;;;;;;73.93;30.57;;;;;;;-144.30;100.00;86601.34;5110032;28;20205;-60
2023/12/06 01:54:42;;;;;;;74.47;28.93;;;;;;;-144.30;100.00;86591.38;5110190;28;20205;-58
2023/12/06 01:57:09;;;;;;;63.77;28.93;;;;;;;-144.30;100.00;86653.03;5110001;28;20282;-58
2023/12/06 01:59:36;;;;;;;66.97;30.33;;;;;;;-144.30;100.00;86619.22;5110178;28;20195;-59
2023/12/06 02:02:03;;;;;;;68.70;28.57;;;;;;;-144.30;100.00;86645.09;5109949;28;20725;-59
2023/12/06 02:04:30;;;;;;;67.37;30.33;;;;;;;-144.30;100.00;86597.34;5109849;28;20646;-60
2023/12/06 02:06:58;;;;;;;74.17;31.20;;;;;;;-144.30;100.00;86607.31;5110110;28;20506;-58
2023/12/06 02:09:27;;;;;;;65.47;29.60;;;;;;;-144.30;100.00;86581.44;5109913;28;20314;-58
2023/12/06 02:11:54;;;;;;;72.37;29.77;;;;;;;-144.30;100.00;86561.56;5109856;28;20195;-60
2023/12/06 02:14:21;;;;;;;73.10;29.37;;;;;;;-144.30;100.00;86605.31;5110274;28;20599;-60
2023/12/06 02:16:49;;;;;;;73.07;31.93;;;;;;;-144.30;100.00;86503.91;5110025;28;20516;-59
2023/12/06 02:19:24;;;;;;;72.07;29.23;;;;;;;-144.30;100.00;86607.31;5110068;28;20285;-60
2023/12/06 02:21:51;;;;;;;66.07;29.83;;;;;;;-144.30;100.00;86565.53;5110007;28;20204;-58
2023/12/06 02:24:20;;;;;;;76.37;31.13;;;;;;;-144.30;100.00;86613.28;5109787;28;20198;-59
2023/12/06 02:26:52;;;;;;;80.07;32.23;;;;;;;-144.30;100.00;86593.38;5109954;28;20662;-58
2023/12/06 02:29:19;;;;;;;74.10;31.77;;;;;;;-144.30;100.00;86615.25;5109914;28;20693;-59
2023/12/06 02:31:46;;;;;;;83.90;32.87;;;;;;;-144.30;100.00;86625.19;5112152;28;20213;-60
2023/12/06 02:34:17;;;;;;;81.03;31.77;;;;;;;-144.30;100.00;86607.31;5114205;28;20195;-60
2023/12/06 02:36:49;;;;;;;76.73;32.10;;;;;;;-144.30;100.00;86605.31;5113788;28;20198;-58
2023/12/06 02:39:17;;;;;;;69.83;31.33;;;;;;;-144.30;100.00;86599.34;5113822;28;20281;-60
2023/12/06 02:41:44;;;;;;;87.03;32.57;;;;;;;-144.30;100.00;86587.41;5113665;28;20742;-58
2023/12/06 02:44:13;;;;;;;75.57;31.53;;;;;;;-144.30;100.00;86607.31;5113415;28;20199;-58
2023/12/06 02:46:40;;;;;;;77.63;31.80;;;;;;;-144.30;100.00;86559.56;5113733;28;20198;-59
2023/12/06 02:49:07;;;;;;;78.83;32.87;;;;;;;-144.30;100.00;86601.34;5113537;28;20222;-58
2023/12/06 02:51:34;;;;;;;79.73;33.07;;;;;;;-144.30;100.00;86593.38;5113589;28;20612;-60
2023/12/06 02:54:00;;;;;;;76.57;32.13;;;;;;;-144.30;100.00;86625.19;5114153;28;20197;-59
2023/12/06 02:56:27;;;;;;;83.40;32.90;;;;;;;-144.30;100.00;86613.28;5113464;28;20285;-58
2023/12/06 02:58:54;;;;;;;81.07;32.93;;;;;;;-144.30;100.00;86567.53;5113115;28;20674;-57
2023/12/06 03:01:23;;;;;;;80.13;32.20;;;;;;;-144.30;100.00;86611.28;5113053;28;20199;-58
2023/12/06 03:03:50;;;;;;;80.90;34.07;;;;;;;-144.30;100.00;86581.44;5113498;28;20217;-58
2023/12/06 03:06:16;;;;;;;84.27;34.53;;;;;;;-144.30;100.00;86585.44;5113283;28;20298;-60
2023/12/06 03:08:43;;;;;;;87.40;33.83;;;;;;;-144.30;100.00;86597.34;5113401;28;20198;-59
2023/12/06 03:11:10;;;;;;;89.07;35.13;;;;;;;-144.30;100.00;86740.53;5113098;28;20747;-60
2023/12/06 03:13:37;;;;;;;88.83;34.37;;;;;;;-144.30;100.00;86605.31;5113376;28;20235;-58
2023/12/06 03:16:05;;;;;;;81.60;32.60;;;;;;;-144.30;100.00;86605.31;5113145;28;20194;-59
2023/12/06 03:18:36;;;;;;;87.27;32.93;;;;;;;-144.30;100.00;86557.59;5113143;28;20206;-58
2023/12/06 03:21:03;;;;;;;75.40;31.03;;;;;;;-144.30;100.00;86579.47;5113118;28;20585;-58
2023/12/06 03:23:30;;;;;;;70.80;31.27;;;;;;;-144.30;100.00;86601.34;5112918;28;20201;-58
2023/12/06 03:25:56;;;;;;;68.90;31.47;;;;;;;-144.30;100.00;86597.34;5112693;28;20278;-60
2023/12/06 03:28:23;;;;;;;80.70;30.83;;;;;;;-144.30;100.00;86557.59;5112936;28;20211;-59
2023/12/06 03:30:50;;;;;;;78.63;31.80;;;;;;;-144.30;100.00;86579.47;5112916;28;20305;-61
2023/12/06 03:33:17;;;;;;;72.10;30.97;;;;;;;-144.30;100.00;86619.22;5112866;28;20199;-60
2023/12/06 03:35:46;;;;;;;84.47;31.97;;;;;;;-144.30;100.00;86623.22;5112779;28;20207;-58
2023/12/06 03:38:12;;;;;;;78.87;32.80;;;;;;;-144.30;100.00;86601.34;5112598;28;20226;-60
2023/12/06 03:40:40;;;;;;;91.13;33.27;;;;;;;-144.30;100.00;86589.41;5112659;28;20222;-58
2023/12/06 03:43:06;;;;;;;86.43;32.97;;;;;;;-144.30;100.00;86639.13;5111586;28;20198;-57
2023/12/06 03:45:33;;;;;;;93.23;33.87;;;;;;;-144.30;100.00;86601.34;5112821;28;20688;-58
2023/12/06 03:48:01;;;;;;;83.67;32.53;;;;;;;-144.30;100.00;86581.44;5112499;27;20276;-60
2023/12/06 03:50:27;;;;;;;85.27;33.13;;;;;;;-144.30;100.00;86613.28;5112456;28;20226;-61
2023/12/06 03:52:56;;;;;;;86.20;32.57;;;;;;;-144.30;100.00;86593.38;5112344;28;20688;-61
2023/12/06 03:55:24;;;;;;;89.13;32.50;;;;;;;-144.30;100.00;86553.59;5112451;28;20198;-59
2023/12/06 03:57:51;;;;;;;81.00;33.40;;;;;;;-144.30;100.00;86569.50;5112307;28;20199;-60
2023/12/06 04:00:18;;;;;;;88.43;33.37;;;;;;;-144.30;100.00;86605.31;5112157;28;20194;-60
2023/12/06 04:02:45;;;;;;;99.70;35.57;;;;;;;-144.30;100.00;86575.47;5112251;28;20664;-61
2023/12/06 04:05:12;;;;;;;83.13;32.73;;;;;;;-144.30;100.00;86613.28;5112058;28;20190;-59
2023/12/06 04:07:39;;;;;;;87.43;32.57;;;;;;;-144.30;100.00;86639.13;5111939;28;20293;-59
2023/12/06 04:10:08;;;;;;;107.67;34.70;;;;;;;-144.30;100.00;86589.41;5111883;28;20265;-60
2023/12/06 04:12:35;;;;;;;98.73;33.10;;;;;;;-144.30;100.00;86623.22;5112320;28;20704;-60
2023/12/06 04:15:03;;;;;;;97.53;33.80;;;;;;;-144.30;100.00;86597.34;5112323;28;20222;-61
2023/12/06 04:17:30;;;;;;;92.20;33.70;;;;;;;-144.30;100.00;86631.16;5112513;28;20682;-61
2023/12/06 04:19:57;;;;;;;91.83;34.33;;;;;;;-144.30;100.00;86603.31;5111963;28;20195;-58
2023/12/06 04:22:24;;;;;;;92.70;34.57;;;;;;;-144.30;100.00;86621.22;5111934;28;20194;-61
2023/12/06 04:24:50;;;;;;;94.80;34.63;;;;;;;-144.30;100.00;86569.50;5112023;28;20583;-61
2023/12/06 04:27:18;;;;;;;87.87;33.87;;;;;;;-144.30;100.00;86901.63;5111951;28;20198;-60
2023/12/06 04:29:45;;;;;;;104.03;34.03;;;;;;;-144.30;100.00;86609.28;5111887;28;20290;-61
2023/12/06 04:32:12;;;;;;;98.33;37.77;;;;;;;-144.30;100.00;86609.28;5111639;28;20199;-61
2023/12/06 04:34:49;;;;;;;93.10;34.83;;;;;;;-144.30;100.00;86589.41;5111794;28;20194;-61
2023/12/06 04:37:16;;;;;;;97.37;35.60;;;;;;;-144.30;100.00;86575.47;5111691;28;20286;-59
2023/12/06 04:39:43;;;;;;;105.60;35.43;;;;;;;-144.30;100.00;86627.19;5110065;28;20207;-58
2023/12/06 04:42:10;;;;;;;95.63;36.60;;;;;;;-144.30;100.00;86629.19;5111386;28;20194;-60
2023/12/06 04:44:39;;;;;;;93.60;34.77;;;;;;;-144.30;100.00;86609.28;5111145;28;20278;-61
2023/12/06 04:47:06;;;;;;;96.87;35.47;;;;;;;-144.30;100.00;86597.34;5110701;28;20187;-61
2023/12/06 04:49:33;;;;;;;96.43;35.50;;;;;;;-144.30;100.00;86565.53;5111160;28;20686;-61
2023/12/06 04:52:01;;;;;;;93.20;35.30;;;;;;;-144.30;100.00;86617.25;5110650;28;20270;-61
2023/12/06 04:54:28;;;;;;;106.03;33.97;;;;;;;-144.30;100.00;86651.06;5110798;28;20216;-61
2023/12/06 04:56:55;;;;;;;93.37;32.67;;;;;;;-144.30;100.00;86601.34;5110876;28;20197;-57
2023/12/06 04:59:22;;;;;;;101.77;35.17;;;;;;;-144.30;100.00;86613.28;5108000;28;20216;-58
2023/12/06 05:01:50;;;;;;;108.83;36.53;;;;;;;-144.30;100.00;86589.41;5110745;28;20191;-58
2023/12/06 05:04:17;;;;;;;94.23;34.17;;;;;;;-144.30;100.00;86633.16;5110939;28;20705;-57
2023/12/06 05:06:44;;;;;;;111.97;38.08;;;;;;;-144.30;100.00;86653.03;5110257;28;20442;-59
2023/12/06 05:09:12;;;;;;;102.90;36.67;;;;;;;-144.30;100.00;86589.41;5110548;28;20500;-58
2023/12/06 05:11:38;;;;;;;99.27;35.03;;;;;;;-144.30;100.00;86617.25;5110743;28;20309;-58
2023/12/06 05:14:05;;;;;;;98.00;33.23;;;;;;;-144.30;100.00;86603.31;5110730;28;20190;-58
2023/12/06 05:16:32;;;;;;;107.07;35.57;;;;;;;-144.30;100.00;86609.28;5110326;28;20194;-60
2023/12/06 05:19:01;;;;;;;97.80;33.30;;;;;;;-144.30;100.00;86657.03;5109893;28;20195;-59
2023/12/06 05:21:28;;;;;;;97.37;34.23;;;;;;;-144.30;100.00;86593.38;5109498;28;20198;-58
2023/12/06 05:23:55;;;;;;;105.23;34.27;;;;;;;-144.30;100.00;86645.09;5109328;28;20201;-59
2023/12/06 05:26:23;;;;;;;108.87;36.13;;;;;;;-144.30;100.00;86651.06;5109657;28;20197;-59
2023/12/06 05:28:50;;;;;;;104.73;36.93;;;;;;;-144.30;100.00;86597.34;5110688;28;20312;-59
2023/12/06 05:31:17;;;;;;;106.43;34.83;;;;;;;-144.30;100.00;86635.13;5110235;28;20233;-59
2023/12/06 05:33:44;;;;;;;114.00;34.30;;;;;;;-144.30;100.00;86633.16;5110729;28;20592;-59
2023/12/06 05:36:12;;;;;;;109.17;35.47;;;;;;;-144.30;100.00;86617.25;5110442;28;20194;-64
2023/12/06 05:38:39;;;;;;;105.83;34.73;;;;;;;-144.30;100.00;86625.19;5110562;28;20686;-58
2023/12/06 05:41:06;;;;;;;102.37;35.43;;;;;;;-144.30;100.00;86643.09;5110290;28;20592;-59
2023/12/06 05:43:33;;;;;;;107.40;35.23;;;;;;;-144.30;100.00;86625.19;5110106;28;20203;-60
2023/12/06 05:46:00;;;;;;;108.17;32.97;;;;;;;-144.30;100.00;86607.31;5110344;28;20212;-60
2023/12/06 05:48:27;;;;;;;90.87;31.47;;;;;;;-144.30;100.00;86647.06;5110391;28;20604;-60
2023/12/06 05:50:54;;;;;;;87.03;29.27;;;;;;;-144.30;100.00;86597.34;5106224;28;20306;-61
2023/12/06 05:53:23;;;;;;;73.27;28.77;;;;;;;-144.30;100.00;86625.19;5109880;28;20202;-61
2023/12/06 05:55:50;;;;;;;88.03;30.37;;;;;;;-144.30;100.00;86623.22;5109998;28;20198;-62
2023/12/06 05:58:17;;;;;;;78.07;28.90;;;;;;;-144.30;100.00;86662.97;5109947;28;20199;-63
2023/12/06 06:00:43;;;;;;;77.40;30.40;;;;;;;-144.30;100.00;86619.22;5111578;28;20326;-62
2023/12/06 06:03:10;;;;;;;83.30;28.33;;;;;;;-144.30;100.00;86569.50;5110973;28;20204;-61
2023/12/06 06:05:37;;;;;;;66.53;26.77;;;;;;;-144.30;100.00;86581.44;5108766;28;20305;-61
2023/12/06 06:08:05;;;;;;;77.73;28.40;;;;;;;-144.30;100.00;86613.28;5109962;28;20694;-62
2023/12/06 06:10:33;;;;;;;76.87;27.10;;;;;;;-144.30;100.00;86599.34;5109790;28;20732;-61
2023/12/06 06:13:00;;;;;;;73.43;28.97;;;;;;;-144.30;100.00;86609.28;5109794;28;20236;-61
2023/12/06 06:15:27;;;;;;;72.17;30.07;;;;;;;-144.30;100.00;86601.34;5109832;28;20197;-60
2023/12/06 06:17:54;;;;;;;72.20;28.60;;;;;;;-144.30;100.00;86619.22;5110009;28;20281;-62
2023/12/06 06:20:21;;;;;;;75.90;27.80;;;;;;;-144.30;100.00;86593.38;5109609;28;20187;-61
2023/12/06 06:22:48;;;;;;;76.27;29.97;;;;;;;-144.30;100.00;86581.44;5109932;28;20232;-61
2023/12/06 06:25:15;;;;;;;78.97;30.03;;;;;;;-144.30;100.00;86637.13;5109781;28;20640;-62
2023/12/06 06:27:43;;;;;;;80.87;29.93;;;;;;;-144.30;100.00;86603.31;5110052;28;20712;-61
2023/12/06 06:30:12;;;;;;;97.33;34.97;;;;;;;-144.30;100.00;86569.50;5109452;28;20197;-62
2023/12/06 06:32:39;;;;;;;111.67;37.57;;;;;;;-144.30;100.00;86583.44;5109840;28;20201;-62
2023/12/06 06:35:07;;;;;;;127.93;40.63;;;;;;;-144.30;100.00;86603.31;5109398;28;20698;-62
2023/12/06 06:37:34;;;;;;;103.10;38.07;;;;;;;-144.30;100.00;86605.31;5109229;28;20199;-62
2023/12/06 06:40:02;;;;;;;89.97;32.10;;;;;;;-144.30;100.00;86569.50;5109552;28;20198;-62
2023/12/06 06:42:28;;;;;;;78.47;29.57;;;;;;;-144.30;100.00;86605.31;5109528;28;20233;-59
2023/12/06 06:44:57;;;;;;;71.20;28.60;;;;;;;-144.30;100.00;86579.47;5109771;28;20738;-60
2023/12/06 06:47:27;;;;;;;87.00;31.07;;;;;;;-144.30;100.00;86585.44;5109535;28;20208;-60
2023/12/06 06:49:55;;;;;;;76.27;29.13;;;;;;;-144.30;100.00;86593.38;5109346;28;20269;-60
2023/12/06 06:52:22;;;;;;;81.10;28.23;;;;;;;-144.30;100.00;86523.78;5109189;28;20317;-61
2023/12/06 06:54:49;;;;;;;70.07;26.97;;;;;;;-144.30;100.00;86569.50;5109474;28;20685;-60
2023/12/06 06:57:16;;;;;;;68.50;27.03;;;;;;;-144.30;100.00;86557.59;5108053;28;20278;-60
2023/12/06 06:59:43;;;;;;;74.70;28.27;;;;;;;-144.30;100.00;86597.34;5109459;28;20543;-60
2023/12/06 07:02:11;;;;;;;70.80;29.27;;;;;;;-144.30;100.00;86541.69;5109254;28;20191;-66
2023/12/06 07:04:38;;;;;;;80.23;29.03;;;;;;;-144.30;100.00;86603.31;5108532;28;20202;-59
2023/12/06 07:07:05;;;;;;;79.17;28.77;;;;;;;-144.30;100.00;86535.72;5108296;28;20281;-60
2023/12/06 07:09:31;;;;;;;66.93;25.97;;;;;;;-144.30;100.00;86545.66;5109721;28;20632;-62
2023/12/06 07:11:58;;;;;;;66.47;26.17;;;;;;;-144.30;100.00;86577.47;5109331;28;20262;-60
2023/12/06 07:14:25;;;;;;;64.53;25.03;;;;;;;-144.30;100.00;86585.44;5109340;28;20199;-60
2023/12/06 07:16:52;;;;;;;77.63;27.27;;;;;;;-144.30;100.00;86605.31;5109433;28;20194;-59
2023/12/06 07:19:21;;;;;;;87.10;29.07;;;;;;;-144.30;100.00;86545.66;5112267;28;20255;-59
2023/12/06 07:21:48;;;;;;;81.30;28.63;;;;;;;-144.30;100.00;86603.31;5112730;28;20563;-61
2023/12/06 07:24:15;;;;;;;104.47;31.47;;;;;;;-144.30;100.00;86613.28;5112838;28;20665;-60
2023/12/06 07:26:42;;;;;;;88.87;29.10;;;;;;;-144.30;100.00;86609.28;5112928;28;20198;-61
2023/12/06 07:29:09;;;;;;;81.13;28.93;;;;;;;-144.30;100.00;86581.44;5112788;28;20198;-62
2023/12/06 07:31:37;;;;;;;96.47;30.27;;;;;;;-144.30;100.00;86573.50;5112720;28;20709;-62
2023/12/06 07:34:03;;;;;;;73.17;28.17;;;;;;;-144.30;100.00;86589.41;5112477;28;20198;-59
2023/12/06 07:36:32;;;;;;;71.33;26.83;;;;;;;-144.30;100.00;86603.31;5112081;28;20218;-61
2023/12/06 07:38:59;;;;;;;69.17;26.43;;;;;;;-144.30;100.00;86619.22;5112797;28;20201;-60
2023/12/06 07:41:26;;;;;;;83.67;27.83;;;;;;;-144.30;100.00;86581.44;5112408;28;20313;-59
2023/12/06 07:43:53;;;;;;;83.57;31.23;;;;;;;-144.30;100.00;86585.44;5113198;28;20195;-60
2023/12/06 07:46:20;;;;;;;87.30;30.03;;;;;;;-144.30;100.00;86617.25;5112286;28;20583;-60
2023/12/06 07:48:47;;;;;;;94.43;31.17;;;;;;;-144.30;100.00;86557.59;5112364;28;20198;-60
2023/12/06 07:51:15;;;;;;;84.13;30.60;;;;;;;-144.30;100.00;86575.47;5111760;28;20227;-62
2023/12/06 07:53:43;;;;;;;90.10;31.63;;;;;;;-144.30;100.00;86893.69;5112505;28;20622;-61
2023/12/06 07:56:11;;;;;;;90.00;30.90;;;;;;;-144.30;100.00;86603.31;5112020;28;20195;-60
2023/12/06 07:58:38;;;;;;;73.93;29.53;;;;;;;-144.30;100.00;86559.56;5112182;28;20202;-59
2023/12/06 08:01:06;;;;;;;97.57;33.77;;;;;;;-144.30;100.00;86629.19;5111890;28;20226;-61
2023/12/06 08:03:33;;;;;;;97.53;34.67;;;;;;;-144.30;100.00;86573.50;5112093;28;20194;-60
2023/12/06 08:06:02;;;;;;;88.87;32.90;;;;;;;-144.30;100.00;86609.28;5111773;28;20616;-61
2023/12/06 08:08:29;;;;;;;94.90;32.73;;;;;;;-144.30;100.00;86565.53;5112362;28;20194;-61
2023/12/06 08:10:57;;;;;;;81.43;33.47;;;;;;;-144.30;100.00;86605.31;5112105;28;20218;-61
2023/12/06 08:13:25;;;;;;;90.83;33.07;;;;;;;-144.30;100.00;86561.56;5111819;28;20190;-60
2023/12/06 08:15:52;;;;;;;84.27;32.13;;;;;;;-144.30;100.00;86599.34;5112284;28;20666;-62
2023/12/06 08:18:19;;;;;;;83.40;31.57;;;;;;;-144.30;100.00;86597.34;5111719;28;20295;-61
2023/12/06 08:20:46;;;;;;;86.47;31.10;;;;;;;-144.30;100.00;86629.19;5111290;28;20198;-58
2023/12/06 08:23:13;;;;;;;93.97;34.70;;;;;;;-144.30;100.00;86525.75;5111583;28;20225;-61
2023/12/06 08:25:41;;;;;;;74.30;30.50;;;;;;;-144.30;100.00;86549.63;5111582;28;20285;-60
2023/12/06 08:28:10;;;;;;;89.70;31.87;;;;;;;-144.30;100.00;86549.63;5111157;28;20200;-58
2023/12/06 08:30:37;;;;;;;87.37;32.10;;;;;;;-144.30;100.00;86593.38;5111200;28;20206;-58
2023/12/06 08:33:04;;;;;;;88.43;31.43;;;;;;;-144.30;100.00;86631.16;5111520;28;20194;-61
2023/12/06 08:35:31;;;;;;;77.87;30.13;;;;;;;-144.30;100.00;86583.44;5110760;28;20665;-59
2023/12/06 08:37:58;;;;;;;93.03;33.37;;;;;;;-144.30;100.00;86565.53;5111368;28;20248;-59
2023/12/06 08:40:26;;;;;;;94.93;32.47;;;;;;;-144.30;100.00;86611.28;5111234;28;20222;-60
2023/12/06 08:42:53;;;;;;;97.90;33.00;;;;;;;-144.30;100.00;86605.31;5111320;28;20199;-61
2023/12/06 08:45:21;;;;;;;89.47;31.50;;;;;;;-144.30;100.00;86601.34;5111207;28;20230;-61
2023/12/06 08:47:48;;;;;;;100.07;33.87;;;;;;;-144.30;100.00;86581.44;5111414;28;20733;-58
2023/12/06 08:50:15;;;;;;;96.43;35.47;;;;;;;-144.30;100.00;86557.59;5110428;28;20237;-59
2023/12/06 08:52:44;;;;;;;106.53;34.63;;;;;;;-144.30;100.00;86597.34;5110877;28;20230;-59
2023/12/06 08:55:11;;;;;;;96.53;33.97;;;;;;;-144.30;100.00;86573.50;5110728;28;20202;-60
2023/12/06 08:57:39;;;;;;;100.60;32.83;;;;;;;-144.30;100.00;86599.34;5111012;28;20252;-58
2023/12/06 09:00:07;;;;;;;86.50;33.10;;;;;;;-144.30;100.00;86565.53;5111169;28;20263;-58
2023/12/06 09:02:36;;;;;;;103.83;33.90;;;;;;;-144.30;100.00;86587.41;5110834;28;20196;-59
2023/12/06 09:05:03;;;;;;;107.23;35.70;;;;;;;-144.30;100.00;86577.47;5110437;28;20658;-59
2023/12/06 09:07:30;;;;;;;116.20;37.13;;;;;;;-144.30;100.00;86525.75;5110589;28;20715;-60
2023/12/06 09:09:57;;;;;;;111.53;35.93;;;;;;;-144.30;100.00;86591.38;5110123;28;20218;-61
2023/12/06 09:12:23;;;;;;;107.23;36.07;;;;;;;-144.30;100.00;86567.53;5109345;28;20225;-60
2023/12/06 09:14:50;;;;;;;93.97;35.57;;;;;;;-144.30;100.00;86575.47;5109552;28;20195;-60
2023/12/06 09:17:18;;;;;;;104.87;36.43;;;;;;;-144.30;100.00;86539.69;5110653;28;20580;-60
2023/12/06 09:19:46;;;;;;;104.57;36.37;;;;;;;-144.30;100.00;86563.56;5110886;28;20199;-61
2023/12/06 09:22:15;;;;;;;100.33;35.90;;;;;;;-144.30;100.00;86577.47;5110435;28;20281;-61
2023/12/06 09:24:42;;;;;;;104.70;34.77;;;;;;;-144.30;100.00;86569.50;5110746;28;20230;-59
2023/12/06 09:27:09;;;;;;;103.63;36.37;;;;;;;-144.30;100.00;86525.75;5110521;28;20594;-59
2023/12/06 09:29:36;;;;;;;106.07;35.20;;;;;;;-144.30;100.00;86462.13;5110472;28;20285;-59
2023/12/06 09:32:04;;;;;;;101.80;34.43;;;;;;;-144.30;100.00;86563.56;5110240;28;20214;-58
2023/12/06 09:34:31;;;;;;;109.80;35.90;;;;;;;-144.30;100.00;86573.50;5110376;28;20201;-61
2023/12/06 09:36:59;;;;;;;102.80;34.47;;;;;;;-144.30;100.00;86581.44;5110667;28;20696;-62
2023/12/06 09:39:26;;;;;;;107.37;35.50;;;;;;;-144.30;100.00;86553.59;5110507;28;20197;-60
2023/12/06 09:41:53;;;;;;;110.73;35.43;;;;;;;-144.30;100.00;86549.63;5109526;28;20240;-61
2023/12/06 09:44:20;;;;;;;111.37;36.10;;;;;;;-144.30;100.00;86609.28;5110299;28;20653;-59
2023/12/06 09:46:49;;;;;;;112.60;36.30;;;;;;;-144.30;100.00;86551.63;5110509;28;20649;-61
2023/12/06 09:49:16;;;;;;;103.43;35.57;;;;;;;-144.30;100.00;86547.66;5109880;28;20281;-62
2023/12/06 09:51:43;;;;;;;102.73;34.60;;;;;;;-144.30;100.00;86565.53;5110048;28;20226;-62
2023/12/06 09:54:12;;;;;;;109.70;36.40;;;;;;;-144.30;100.00;86573.50;5110179;28;20595;-62
2023/12/06 09:56:39;;;;;;;98.30;35.87;;;;;;;-144.30;100.00;86531.72;5110354;28;20247;-59
2023/12/06 09:59:06;;;;;;;116.37;35.90;;;;;;;-144.30;100.00;86585.44;5109810;28;20297;-59
2023/12/06 10:01:33;;;;;;;101.80;35.80;;;;;;;-144.30;100.00;86569.50;5110035;28;20190;-58
2023/12/06 10:04:00;;;;;;;108.10;36.80;;;;;;;-144.30;100.00;86557.59;5109886;28;20194;-59
2023/12/06 10:06:27;;;;;;;91.37;34.07;;;;;;;-144.30;100.00;86515.81;5109921;28;20621;-59
2023/12/06 10:08:55;;;;;;;101.73;33.13;;;;;;;-144.30;100.00;86484.00;5109892;28;20205;-59
2023/12/06 10:11:25;;;;;;;97.67;32.97;;;;;;;-144.30;100.00;86543.66;5109737;28;20614;-58
2023/12/06 10:13:53;;;;;;;91.27;33.10;;;;;;;-144.30;100.00;86597.34;5109822;28;20195;-58
2023/12/06 10:16:22;;;;;;;80.13;31.47;;;;;;;-144.30;100.00;86567.53;5109507;28;20654;-58
2023/12/06 10:18:52;;;;;;;72.67;29.00;;;;;;;-144.30;100.00;86539.69;5110082;28;20195;-57
2023/12/06 10:21:20;;;;;;;73.60;27.03;;;;;;;-144.30;100.00;86581.44;5109752;28;20678;-59
2023/12/06 10:23:54;;;;;;;81.60;29.07;;;;;;;-144.30;100.00;86539.69;5109697;28;20226;-60
2023/12/06 10:26:21;;;;;;;70.27;27.70;;;;;;;-144.30;100.00;86563.56;5109759;28;20564;-59
2023/12/06 10:28:50;;;;;;;69.70;27.73;;;;;;;-144.30;100.00;86533.72;5109684;28;20201;-58
2023/12/06 10:31:17;;;;;;;77.50;27.43;;;;;;;-144.30;100.00;86545.66;5109474;28;20281;-58
2023/12/06 10:33:45;;;;;;;64.83;26.00;;;;;;;-144.30;100.00;86557.59;5109622;28;20194;-58
2023/12/06 10:36:14;;;;;;;69.30;25.03;;;;;;;-144.30;100.00;86551.63;5109368;28;20205;-58
2023/12/06 10:38:42;;;;;;;68.60;24.47;;;;;;;-144.30;100.00;86525.75;5109717;28;20289;-59
2023/12/06 10:41:11;;;;;;;59.90;24.53;;;;;;;-144.30;100.00;86466.09;5109220;28;20245;-58
2023/12/06 10:43:39;;;;;;;61.83;27.20;;;;;;;-144.30;100.00;86537.69;5109385;28;20199;-59
2023/12/06 10:46:09;;;;;;;61.90;24.43;;;;;;;-144.30;100.00;86523.78;5109325;28;20197;-60
2023/12/06 10:48:37;;;;;;;62.00;23.27;;;;;;;-144.30;100.00;86493.94;5109944;28;20576;-59
2023/12/06 10:51:06;;;;;;;61.23;24.00;;;;;;;-144.30;100.00;86529.75;5109599;28;20211;-59
2023/12/06 10:53:33;;;;;;;64.30;23.63;;;;;;;-144.30;100.00;86533.72;5113206;28;20681;-58